createdAt,value
2016-11-12T00:00:53.642Z,69.67
2016-11-12T00:01:53.571Z,69.3
2016-11-12T00:02:53.644Z,69.14
2016-11-12T00:03:53.577Z,69.05
2016-11-12T00:04:53.641Z,68.76
2016-11-12T00:05:53.584Z,69.49
2016-11-12T00:06:53.655Z,69.24
2016-11-12T00:07:53.651Z,69.33
2016-11-12T00:08:53.679Z,69.39
2016-11-12T00:09:53.658Z,69.01
2016-11-12T00:10:53.668Z,69.01
2016-11-12T00:11:53.682Z,69.11
2016-11-12T00:12:53.665Z,69.71
2016-11-12T00:13:53.610Z,69.49
2016-11-12T00:14:53.686Z,70.05
2016-11-12T00:15:53.872Z,70.9
2016-11-12T00:16:53.690Z,71.94
2016-11-12T00:17:53.617Z,72.03
2016-11-12T00:18:53.702Z,72.03
2016-11-12T00:19:53.689Z,71.56
2016-11-12T00:20:53.698Z,71.56
2016-11-12T00:21:53.699Z,70.9
2016-11-12T00:22:53.692Z,70.62
2016-11-12T00:23:53.625Z,70.15
2016-11-12T00:24:53.714Z,69.01
2016-11-12T00:25:53.632Z,68.73
2016-11-12T00:26:53.707Z,68.63
2016-11-12T00:27:53.641Z,68.35
2016-11-12T00:28:53.708Z,68.35
2016-11-12T00:29:53.653Z,68.44
2016-11-12T00:30:53.641Z,67.44
2016-11-12T00:31:53.665Z,67.35
2016-11-12T00:32:53.735Z,66.78
2016-11-12T00:33:53.720Z,67.54
2016-11-12T00:34:53.663Z,68.29
2016-11-12T00:35:53.656Z,68.86
2016-11-12T00:36:53.663Z,69.33
2016-11-12T00:37:53.739Z,71.5
2016-11-12T00:38:53.696Z,71.98
2016-11-12T00:39:53.673Z,72.26
2016-11-12T00:40:53.676Z,72.55
2016-11-12T00:41:53.671Z,71.69
2016-11-12T00:42:53.678Z,70.9
2016-11-12T00:43:53.684Z,69.96
2016-11-12T00:44:53.764Z,68.39
2016-11-12T00:45:53.682Z,68.48
2016-11-12T00:46:53.688Z,67.82
2016-11-12T00:47:53.714Z,67.54
2016-11-12T00:48:53.768Z,67.44
2016-11-12T00:49:53.701Z,68.29
2016-11-12T00:50:53.771Z,68.39
2016-11-12T00:51:53.851Z,68.48
2016-11-12T00:52:53.699Z,70.28
2016-11-12T00:53:53.710Z,70.28
2016-11-12T00:54:53.777Z,70
2016-11-12T00:55:53.732Z,69.24
2016-11-12T00:56:53.715Z,69.81
2016-11-12T00:57:53.720Z,70.28
2016-11-12T00:58:53.799Z,69.71
2016-11-12T00:59:53.730Z,69.33
2016-11-12T01:00:53.798Z,69.52
2016-11-12T01:01:53.726Z,69.81
2016-11-12T01:02:53.802Z,69.05
2016-11-12T01:03:53.827Z,69.24
2016-11-12T01:04:53.739Z,69.52
2016-11-12T01:05:53.734Z,69.33
2016-11-12T01:06:53.809Z,69.05
2016-11-12T01:07:53.811Z,68.57
2016-11-12T01:08:53.814Z,67.91
2016-11-12T01:09:53.825Z,67.63
2016-11-12T01:10:53.755Z,67.91
2016-11-12T01:11:53.825Z,68.39
2016-11-12T01:12:53.753Z,68.57
2016-11-12T01:13:53.862Z,68.39
2016-11-12T01:14:53.839Z,68.48
2016-11-12T01:15:53.763Z,67.35
2016-11-12T01:16:53.837Z,68.01
2016-11-12T01:17:53.768Z,68.1
2016-11-12T01:18:53.847Z,68.95
2016-11-12T01:19:53.872Z,68.76
2016-11-12T01:20:53.852Z,69.52
2016-11-12T01:21:53.777Z,69.52
2016-11-12T01:22:53.853Z,70.47
2016-11-12T01:23:53.788Z,70.94
2016-11-12T01:24:53.799Z,70.37
2016-11-12T01:25:53.789Z,70.43
2016-11-12T01:26:53.797Z,69.05
2016-11-12T01:27:53.793Z,68.76
2016-11-12T01:28:53.802Z,68.95
2016-11-12T01:29:53.800Z,70.28
2016-11-12T01:30:53.878Z,71.47
2016-11-12T01:31:53.884Z,71.84
2016-11-12T01:32:53.879Z,68.07
2016-11-12T01:33:53.811Z,68.1
2016-11-12T01:34:53.886Z,67.54
2016-11-12T01:35:53.840Z,67.54
2016-11-12T01:36:53.898Z,68.39
2016-11-12T01:37:53.823Z,68.67
2016-11-12T01:38:53.898Z,69.24
2016-11-12T01:39:53.834Z,70.09
2016-11-12T01:40:53.840Z,70.37
2016-11-12T01:41:53.833Z,70.37
2016-11-12T01:42:53.909Z,70.56
2016-11-12T01:43:53.918Z,67.82
2016-11-12T01:44:53.930Z,67.44
2016-11-12T01:45:53.848Z,68.2
2016-11-12T01:46:53.849Z,68.57
2016-11-12T01:47:53.925Z,68.95
2016-11-12T01:48:53.924Z,67.54
2016-11-12T01:49:53.959Z,67.72
2016-11-12T01:50:53.862Z,68.57
2016-11-12T01:51:53.953Z,68.1
2016-11-12T01:52:53.868Z,69.05
2016-11-12T01:53:53.940Z,69.05
2016-11-12T01:54:53.875Z,69.33
2016-11-12T01:55:53.945Z,70.56
2016-11-12T01:56:53.947Z,68.76
2016-11-12T01:57:53.970Z,67.63
2016-11-12T01:58:53.949Z,67.63
2016-11-12T01:59:53.959Z,67.44
2016-11-12T02:00:53.883Z,68.67
2016-11-12T02:01:53.884Z,68.39
2016-11-12T02:02:53.967Z,68.2
2016-11-12T02:03:53.973Z,68.67
2016-11-12T02:04:53.898Z,69.05
2016-11-12T02:05:53.903Z,69.62
2016-11-12T02:06:53.976Z,70.37
2016-11-12T02:07:53.999Z,70
2016-11-12T02:08:53.988Z,69.33
2016-11-12T02:09:53.975Z,68.95
2016-11-12T02:10:53.985Z,68.57
2016-11-12T02:11:53.986Z,69.46
2016-11-12T02:12:53.918Z,71.83
2016-11-12T02:13:53.990Z,72.64
2016-11-12T02:14:53.997Z,72.83
2016-11-12T02:15:54.005Z,73.11
2016-11-12T02:16:54.006Z,75.28
2016-11-12T02:17:54.002Z,73.3
2016-11-12T02:18:53.931Z,71.88
2016-11-12T02:19:54.021Z,72.92
2016-11-12T02:20:54.018Z,72.83
2016-11-12T02:21:54.014Z,70.65
2016-11-12T02:22:53.949Z,69.24
2016-11-12T02:23:54.042Z,70.75
2016-11-12T02:24:54.029Z,71.41
2016-11-12T02:25:53.946Z,72.83
2016-11-12T02:26:54.026Z,73.3
2016-11-12T02:27:54.033Z,74.62
2016-11-12T02:28:53.957Z,73.49
2016-11-12T02:29:54.056Z,70.94
2016-11-12T02:30:53.968Z,70.09
2016-11-12T02:31:53.968Z,71.54
2016-11-12T02:32:53.975Z,71.92
2016-11-12T02:33:53.973Z,72.39
2016-11-12T02:34:53.979Z,72.3
2016-11-12T02:35:53.980Z,71.26
2016-11-12T02:36:54.054Z,72.77
2016-11-12T02:37:53.983Z,71.45
2016-11-12T02:38:54.061Z,70.88
2016-11-12T02:39:54.067Z,72.67
2016-11-12T02:40:53.991Z,77.02
2016-11-12T02:41:53.997Z,77.12
2016-11-12T02:42:54.073Z,76.93
2016-11-12T02:43:54.000Z,77.02
2016-11-12T02:44:54.075Z,77.02
2016-11-12T02:45:54.079Z,77.87
2016-11-12T02:46:54.087Z,80.05
2016-11-12T02:47:54.012Z,82.41
2016-11-12T02:48:54.021Z,79.1
2016-11-12T02:49:54.023Z,80.14
2016-11-12T02:50:54.111Z,80.33
2016-11-12T02:51:54.112Z,78.97
2016-11-12T02:52:54.108Z,75.66
2016-11-12T02:53:54.102Z,73.11
2016-11-12T02:54:54.032Z,74.19
2016-11-12T02:55:54.120Z,73.9
2016-11-12T02:56:54.115Z,76.55
2016-11-12T02:57:54.044Z,78.16
2016-11-12T02:58:54.122Z,78.72
2016-11-12T02:59:54.122Z,78.78
2016-11-12T03:00:54.047Z,78.87
2016-11-12T03:01:54.116Z,77.45
2016-11-12T03:02:54.049Z,75.09
2016-11-12T03:03:54.127Z,74.05
2016-11-12T03:04:54.058Z,71.5
2016-11-12T03:05:54.062Z,74.09
2016-11-12T03:06:54.066Z,74.24
2016-11-12T03:07:54.068Z,73.05
2016-11-12T03:08:54.141Z,74.66
2016-11-12T03:09:54.070Z,74.85
2016-11-12T03:10:54.070Z,75.89
2016-11-12T03:11:54.165Z,78.44
2016-11-12T03:12:54.081Z,79.19
2016-11-12T03:13:54.153Z,79.67
2016-11-12T03:14:54.164Z,79.57
2016-11-12T03:15:54.156Z,78.63
2016-11-12T03:16:54.095Z,80.8
2016-11-12T03:17:54.091Z,79.38
2016-11-12T03:18:54.098Z,78.06
2016-11-12T03:19:54.101Z,78.72
2016-11-12T03:20:54.105Z,79.67
2016-11-12T03:21:54.104Z,78.34
2016-11-12T03:22:54.191Z,78.63
2016-11-12T03:23:54.197Z,77.69
2016-11-12T03:24:54.124Z,79.38
2016-11-12T03:25:54.200Z,78.63
2016-11-12T03:26:54.197Z,77.78
2016-11-12T03:27:54.136Z,79.1
2016-11-12T03:28:54.137Z,80.9
2016-11-12T03:29:54.203Z,79.76
2016-11-12T03:30:54.203Z,79.67
2016-11-12T03:31:54.225Z,78.72
2016-11-12T03:32:54.215Z,77.78
2016-11-12T03:33:54.138Z,77.69
2016-11-12T03:34:54.140Z,80.9
2016-11-12T03:35:54.219Z,78.81
2016-11-12T03:36:54.150Z,78.91
2016-11-12T03:37:54.151Z,81.27
2016-11-12T03:38:54.225Z,82.6
2016-11-12T03:39:54.156Z,82.03
2016-11-12T03:40:54.153Z,81.93
2016-11-12T03:41:54.229Z,80.9
2016-11-12T03:42:54.236Z,79.67
2016-11-12T03:43:54.193Z,79
2016-11-12T03:44:54.171Z,79.57
2016-11-12T03:45:54.249Z,78.81
2016-11-12T03:46:54.248Z,78.16
2016-11-12T03:47:54.178Z,79.38
2016-11-12T03:48:54.184Z,78.91
2016-11-12T03:49:54.190Z,80.33
2016-11-12T03:50:54.186Z,79.95
2016-11-12T03:51:54.187Z,81.65
2016-11-12T03:52:54.267Z,79.67
2016-11-12T03:53:54.268Z,81.65
2016-11-12T03:54:54.196Z,81.18
2016-11-12T03:55:54.267Z,81.74
2016-11-12T03:56:54.271Z,82.22
2016-11-12T03:57:54.273Z,83.92
2016-11-12T03:58:54.279Z,87.04
2016-11-12T03:59:54.295Z,84.11
2016-11-12T04:00:54.223Z,82.98
2016-11-12T04:01:54.212Z,83.92
2016-11-12T04:02:54.218Z,84.01
2016-11-12T04:03:54.240Z,82.6
2016-11-12T04:04:54.229Z,84.86
2016-11-12T04:05:54.230Z,84.68
2016-11-12T04:06:54.235Z,82.79
2016-11-12T04:07:54.321Z,82.5
2016-11-12T04:08:54.229Z,82.98
2016-11-12T04:09:54.235Z,82.31
2016-11-12T04:10:54.238Z,82.31
2016-11-12T04:11:54.244Z,81.84
2016-11-12T04:12:54.314Z,82.6
2016-11-12T04:13:54.245Z,82.22
2016-11-12T04:14:54.325Z,82.22
2016-11-12T04:15:54.304Z,82.12
2016-11-12T04:16:54.326Z,82.22
2016-11-12T04:17:54.328Z,82.79
2016-11-12T04:18:54.335Z,83.45
2016-11-12T04:19:54.336Z,82.22
2016-11-12T04:20:54.336Z,82.79
2016-11-12T04:21:54.260Z,82.69
2016-11-12T04:22:54.269Z,82.69
2016-11-12T04:23:54.271Z,84.2
2016-11-12T04:24:54.356Z,81.84
2016-11-12T04:25:54.358Z,82.6
2016-11-12T04:26:54.357Z,80.8
2016-11-12T04:27:54.368Z,80.8
2016-11-12T04:28:54.280Z,80.14
2016-11-12T04:29:54.366Z,80.8
2016-11-12T04:30:54.290Z,81.46
2016-11-12T04:31:54.309Z,79.76
2016-11-12T04:32:54.292Z,79.48
2016-11-12T04:33:54.371Z,79.86
2016-11-12T04:34:54.364Z,80.33
2016-11-12T04:35:54.310Z,81.27
2016-11-12T04:36:54.374Z,82.41
2016-11-12T04:37:54.379Z,80.9
2016-11-12T04:38:54.314Z,80.24
2016-11-12T04:39:54.381Z,79.76
2016-11-12T04:40:54.326Z,81.46
2016-11-12T04:41:54.680Z,81.56
2016-11-12T04:42:54.394Z,81.09
2016-11-12T04:43:54.395Z,79.1
2016-11-12T04:44:54.327Z,78.91
2016-11-12T04:45:54.332Z,80.43
2016-11-12T04:46:54.330Z,81.37
2016-11-12T04:47:54.365Z,80.33
2016-11-12T04:48:54.405Z,80.14
2016-11-12T04:49:54.412Z,79.86
2016-11-12T04:50:54.343Z,79.67
2016-11-12T04:51:54.414Z,80.8
2016-11-12T04:52:54.426Z,81.84
2016-11-12T04:53:54.352Z,79.25
2016-11-12T04:54:54.357Z,78.34
2016-11-12T04:55:54.428Z,79.19
2016-11-12T04:56:54.370Z,79.29
2016-11-12T04:57:54.387Z,78.72
2016-11-12T04:58:54.442Z,78.44
2016-11-12T04:59:54.371Z,79
2016-11-12T05:00:54.447Z,79
2016-11-12T05:01:54.441Z,79
2016-11-12T05:02:54.372Z,79.1
2016-11-12T05:03:54.419Z,80.05
2016-11-12T05:04:54.376Z,79.86
2016-11-12T05:05:54.389Z,80.62
2016-11-12T05:06:54.389Z,80.1
2016-11-12T05:07:54.394Z,81.56
2016-11-12T05:08:54.474Z,81.8
2016-11-12T05:09:54.404Z,80.38
2016-11-12T05:10:54.400Z,81.04
2016-11-12T05:11:54.398Z,80.38
2016-11-12T05:12:54.476Z,80.1
2016-11-12T05:13:54.403Z,80.1
2016-11-12T05:14:54.491Z,79.44
2016-11-12T05:15:54.485Z,80.38
2016-11-12T05:16:54.414Z,78.68
2016-11-12T05:17:54.498Z,78.4
2016-11-12T05:18:54.491Z,79.91
2016-11-12T05:19:54.436Z,81.18
2016-11-12T05:20:54.499Z,81.42
2016-11-12T05:21:54.424Z,81.61
2016-11-12T05:22:54.500Z,82.41
2016-11-12T05:23:54.433Z,80.95
2016-11-12T05:24:54.504Z,80.76
2016-11-12T05:25:54.520Z,81.9
2016-11-12T05:26:54.441Z,81.71
2016-11-12T05:27:54.447Z,79.53
2016-11-12T05:28:54.523Z,80.95
2016-11-12T05:29:54.523Z,81.65
2016-11-12T05:30:54.460Z,81.56
2016-11-12T05:31:54.526Z,82.18
2016-11-12T05:32:54.461Z,82.28
2016-11-12T05:33:54.472Z,82.88
2016-11-12T05:34:54.461Z,82.37
2016-11-12T05:35:54.556Z,83.59
2016-11-12T05:36:54.470Z,83.22
2016-11-12T05:37:54.545Z,82.18
2016-11-12T05:38:54.548Z,81.52
2016-11-12T05:39:54.554Z,81.61
2016-11-12T05:40:54.566Z,82.93
2016-11-12T05:41:54.478Z,82.75
2016-11-12T05:42:54.485Z,84.73
2016-11-12T05:43:54.490Z,83.12
2016-11-12T05:44:54.607Z,82.37
2016-11-12T05:45:54.563Z,83.03
2016-11-12T05:46:54.566Z,82.75
2016-11-12T05:47:54.577Z,82.09
2016-11-12T05:48:54.505Z,82.37
2016-11-12T05:49:54.517Z,83.4
2016-11-12T05:50:54.586Z,83.22
2016-11-12T05:51:54.599Z,84.07
2016-11-12T05:52:54.584Z,83.03
2016-11-12T05:53:54.512Z,83.97
2016-11-12T05:54:54.522Z,84.16
2016-11-12T05:55:54.520Z,83.12
2016-11-12T05:56:54.523Z,83.69
2016-11-12T05:57:54.519Z,83.03
2016-11-12T05:58:54.529Z,83.03
2016-11-12T05:59:54.539Z,82.84
2016-11-12T06:00:54.532Z,83.88
2016-11-12T06:01:54.531Z,83.03
2016-11-12T06:02:54.612Z,83.59
2016-11-12T06:03:54.536Z,83.78
2016-11-12T06:04:54.618Z,84.64
2016-11-12T06:05:54.633Z,84.45
2016-11-12T06:06:54.558Z,84.64
2016-11-12T06:07:54.652Z,84.16
2016-11-12T06:08:54.556Z,84.77
2016-11-12T06:09:54.627Z,86.15
2016-11-12T06:10:54.568Z,85.96
2016-11-12T06:11:54.577Z,86.33
2016-11-12T06:12:54.648Z,87.09
2016-11-12T06:13:54.571Z,86.9
2016-11-12T06:14:54.578Z,86.43
2016-11-12T06:15:54.574Z,87.09
2016-11-12T06:16:54.650Z,86.52
2016-11-12T06:17:54.659Z,87.28
2016-11-12T06:18:54.587Z,86.71
2016-11-12T06:19:54.583Z,86.24
2016-11-12T06:20:54.660Z,88.6
2016-11-12T06:21:54.658Z,87.66
2016-11-12T06:22:54.598Z,88.04
2016-11-12T06:23:54.621Z,89.07
2016-11-12T06:24:54.596Z,88.6
2016-11-12T06:25:54.705Z,86.9
2016-11-12T06:26:54.614Z,86.71
2016-11-12T06:27:54.682Z,87.66
2016-11-12T06:28:54.612Z,87.94
2016-11-12T06:29:54.688Z,88.13
2016-11-12T06:30:54.680Z,89.4
2016-11-12T06:31:54.687Z,88.6
2016-11-12T06:32:54.695Z,88.89
2016-11-12T06:33:54.626Z,89.69
2016-11-12T06:34:54.624Z,89.97
2016-11-12T06:35:54.698Z,90.06
2016-11-12T06:36:54.727Z,90.54
2016-11-12T06:37:54.634Z,91.2
2016-11-12T06:38:54.650Z,91.58
2016-11-12T06:39:54.817Z,90.82
2016-11-12T06:40:54.639Z,91.39
2016-11-12T06:41:54.637Z,91.48
2016-11-12T06:42:54.650Z,92.61
2016-11-12T06:43:54.647Z,93.37
2016-11-12T06:44:54.741Z,93.18
2016-11-12T06:45:54.724Z,93.37
2016-11-12T06:46:54.664Z,94.51
2016-11-12T06:47:54.736Z,94.41
2016-11-12T06:48:54.676Z,94.13
2016-11-12T06:49:54.742Z,94.03
2016-11-12T06:50:54.733Z,94.22
2016-11-12T06:51:54.671Z,94.32
2016-11-12T06:52:54.680Z,94.7
2016-11-12T06:53:54.757Z,94.7
2016-11-12T06:54:54.771Z,94.79
2016-11-12T06:55:54.697Z,95.54
2016-11-12T06:56:54.758Z,96.59
2016-11-12T06:57:54.757Z,96.96
2016-11-12T06:58:54.688Z,96.49
2016-11-12T06:59:54.771Z,96.96
2016-11-12T07:00:54.771Z,96.59
2016-11-12T07:01:54.770Z,96.49
2016-11-12T07:02:54.701Z,96.87
2016-11-12T07:03:54.710Z,96.68
2016-11-12T07:04:54.786Z,98.28
2016-11-12T07:05:54.711Z,96.49
2016-11-12T07:06:54.795Z,99.8
2016-11-12T07:07:54.792Z,99.99
2016-11-12T07:08:54.724Z,98.66
2016-11-12T07:09:54.797Z,98.47
2016-11-12T07:10:54.729Z,97.63
2016-11-12T07:11:54.826Z,96.59
2016-11-12T07:12:54.809Z,99.52
2016-11-12T07:13:54.808Z,97.63
2016-11-12T07:14:54.740Z,99.89
2016-11-12T07:15:54.736Z,99.99
2016-11-12T07:16:54.747Z,99.99
2016-11-12T07:17:54.828Z,99.99
2016-11-12T07:18:54.754Z,99.99
2016-11-12T07:19:54.820Z,99.99
2016-11-12T07:20:54.834Z,99.99
2016-11-12T07:21:54.841Z,99.99
2016-11-12T07:22:54.770Z,99.99
2016-11-12T07:23:54.833Z,99.99
2016-11-12T07:24:54.843Z,99.99
2016-11-12T07:25:54.765Z,99.99
2016-11-12T07:26:54.848Z,99.99
2016-11-12T07:27:54.865Z,99.99
2016-11-12T07:28:54.776Z,99.99
2016-11-12T07:29:54.779Z,99.99
2016-11-12T07:30:54.787Z,99.99
2016-11-12T07:31:54.865Z,99.99
2016-11-12T07:32:54.795Z,99.99
2016-11-12T07:33:54.876Z,99.99
2016-11-12T07:34:54.795Z,99.99
2016-11-12T07:35:54.790Z,99.99
2016-11-12T07:36:54.877Z,99.99
2016-11-12T07:37:54.804Z,99.99
2016-11-12T07:38:54.807Z,99.99
2016-11-12T07:39:54.885Z,99.99
2016-11-12T07:40:54.809Z,99.99
2016-11-12T07:41:54.890Z,99.99
2016-11-12T07:42:54.891Z,99.99
2016-11-12T07:43:54.855Z,99.99
2016-11-12T07:44:54.824Z,99.99
2016-11-12T07:45:54.890Z,99.99
2016-11-12T07:46:54.888Z,99.99
2016-11-12T07:47:54.834Z,99.99
2016-11-12T07:48:54.912Z,99.99
2016-11-12T07:49:54.863Z,99.99
2016-11-12T07:50:54.924Z,99.99
2016-11-12T07:51:54.911Z,99.99
2016-11-12T07:52:54.839Z,99.99
2016-11-12T07:53:54.929Z,99.99
2016-11-12T07:54:54.918Z,99.99
2016-11-12T07:55:54.917Z,99.99
2016-11-12T07:56:54.931Z,99.99
2016-11-12T07:57:54.932Z,99.99
2016-11-12T07:58:54.858Z,99.99
2016-11-12T07:59:54.966Z,99.99
2016-11-12T08:00:54.939Z,99.99
2016-11-12T08:01:54.875Z,99.99
2016-11-12T08:02:54.867Z,99.99
2016-11-12T08:03:54.874Z,99.99
2016-11-12T08:04:54.951Z,99.99
2016-11-12T08:05:54.885Z,99.99
2016-11-12T08:06:54.960Z,99.99
2016-11-12T08:07:54.882Z,99.99
2016-11-12T08:08:54.888Z,99.99
2016-11-12T08:09:54.954Z,99.99
2016-11-12T08:10:54.964Z,99.99
2016-11-12T08:11:54.972Z,99.99
2016-11-12T08:12:54.966Z,99.99
2016-11-12T08:13:54.977Z,99.99
2016-11-12T08:14:54.980Z,99.99
2016-11-12T08:15:54.985Z,99.99
2016-11-12T08:16:54.979Z,99.99
2016-11-12T08:17:54.985Z,99.99
2016-11-12T08:18:54.996Z,99.99
2016-11-12T08:19:54.917Z,99.99
2016-11-12T08:20:54.994Z,99.99
2016-11-12T08:21:54.923Z,99.99
2016-11-12T08:22:54.994Z,99.99
2016-11-12T08:23:54.923Z,99.99
2016-11-12T08:24:55.000Z,99.99
2016-11-12T08:25:55.001Z,99.99
2016-11-12T08:26:54.997Z,99.99
2016-11-12T08:27:55.002Z,99.99
2016-11-12T08:28:55.010Z,99.99
2016-11-12T08:29:54.934Z,99.99
2016-11-12T08:30:55.007Z,99.99
2016-11-12T08:31:54.970Z,99.99
2016-11-12T08:32:54.957Z,99.99
2016-11-12T08:33:55.020Z,99.99
2016-11-12T08:34:55.025Z,99.99
2016-11-12T08:35:55.018Z,99.99
2016-11-12T08:36:54.950Z,99.99
2016-11-12T08:37:55.033Z,99.99
2016-11-12T08:38:55.033Z,99.99
2016-11-12T08:39:54.958Z,99.99
2016-11-12T08:40:54.975Z,99.99
2016-11-12T08:41:55.040Z,99.99
2016-11-12T08:42:54.972Z,99.99
2016-11-12T08:43:55.108Z,99.99
2016-11-12T08:44:55.060Z,99.99
2016-11-12T08:45:55.054Z,99.99
2016-11-12T08:46:55.063Z,99.99
2016-11-12T08:47:55.002Z,99.99
2016-11-12T08:48:55.075Z,99.99
2016-11-12T08:49:54.993Z,99.99
2016-11-12T08:50:54.993Z,99.99
2016-11-12T08:51:55.002Z,99.99
2016-11-12T08:52:55.007Z,99.99
2016-11-12T08:53:55.000Z,99.99
2016-11-12T08:54:55.010Z,99.99
2016-11-12T08:55:55.086Z,99.99
2016-11-12T08:56:55.014Z,99.99
2016-11-12T08:57:55.020Z,99.99
2016-11-12T08:58:55.095Z,99.99
2016-11-12T08:59:55.010Z,99.99
2016-11-12T09:00:55.025Z,99.99
2016-11-12T09:01:55.024Z,99.99
2016-11-12T09:02:55.030Z,99.99
2016-11-12T09:03:55.115Z,99.99
2016-11-12T09:04:55.107Z,99.99
2016-11-12T09:05:55.106Z,99.99
2016-11-12T09:06:55.128Z,99.99
2016-11-12T09:07:55.116Z,99.99
2016-11-12T09:08:55.142Z,99.99
2016-11-12T09:09:55.045Z,99.99
2016-11-12T09:10:55.048Z,99.99
2016-11-12T09:11:55.135Z,99.99
2016-11-12T09:12:55.065Z,99.99
2016-11-12T09:13:55.127Z,99.99
2016-11-12T09:14:55.066Z,99.99
2016-11-12T09:15:55.135Z,99.99
2016-11-12T09:16:55.142Z,99.99
2016-11-12T09:17:55.142Z,99.99
2016-11-12T09:18:55.071Z,99.99
2016-11-12T09:19:55.103Z,99.99
2016-11-12T09:20:55.067Z,99.99
2016-11-12T09:21:55.082Z,99.99
2016-11-12T09:22:55.076Z,99.99
2016-11-12T09:23:55.087Z,99.99
2016-11-12T09:24:55.085Z,99.99
2016-11-12T09:25:55.093Z,99.99
2016-11-12T09:26:55.170Z,99.99
2016-11-12T09:27:55.098Z,99.99
2016-11-12T09:28:55.115Z,99.99
2016-11-12T09:29:55.100Z,99.99
2016-11-12T09:30:55.183Z,99.99
2016-11-12T09:31:55.121Z,99.99
2016-11-12T09:32:55.109Z,99.99
2016-11-12T09:33:55.206Z,99.99
2016-11-12T09:34:55.189Z,99.99
2016-11-12T09:35:55.212Z,99.99
2016-11-12T09:36:55.209Z,99.99
2016-11-12T09:37:55.151Z,99.99
2016-11-12T09:38:55.200Z,99.99
2016-11-12T09:39:55.152Z,99.99
2016-11-12T09:40:55.136Z,99.99
2016-11-12T09:41:55.214Z,99.99
2016-11-12T09:42:55.152Z,99.99
2016-11-12T09:43:55.141Z,99.99
2016-11-12T09:44:55.148Z,99.99
2016-11-12T09:45:55.218Z,99.99
2016-11-12T09:46:55.225Z,99.99
2016-11-12T09:47:55.220Z,99.99
2016-11-12T09:48:55.158Z,99.99
2016-11-12T09:49:55.230Z,99.99
2016-11-12T09:50:55.238Z,99.99
2016-11-12T09:51:55.194Z,99.99
2016-11-12T09:52:55.169Z,99.99
2016-11-12T09:53:55.171Z,99.99
2016-11-12T09:54:55.173Z,99.99
2016-11-12T09:55:55.178Z,99.99
2016-11-12T09:56:55.258Z,99.99
2016-11-12T09:57:55.182Z,99.99
2016-11-12T09:58:55.251Z,99.99
2016-11-12T09:59:55.261Z,99.99
2016-11-12T10:00:55.186Z,99.99
2016-11-12T10:01:55.194Z,99.99
2016-11-12T10:02:55.202Z,99.99
2016-11-12T10:03:55.280Z,99.99
2016-11-12T10:04:55.290Z,99.99
2016-11-12T10:05:55.273Z,99.99
2016-11-12T10:06:55.275Z,99.99
2016-11-12T10:07:55.309Z,99.99
2016-11-12T10:08:55.306Z,99.99
2016-11-12T10:09:55.279Z,99.99
2016-11-12T10:10:55.237Z,99.99
2016-11-12T10:11:55.220Z,99.99
2016-11-12T10:12:55.314Z,99.99
2016-11-12T10:13:55.225Z,99.99
2016-11-12T10:14:55.233Z,99.99
2016-11-12T10:15:55.229Z,99.99
2016-11-12T10:16:55.310Z,99.99
2016-11-12T10:17:55.237Z,99.99
2016-11-12T10:18:55.235Z,99.99
2016-11-12T10:19:55.242Z,99.99
2016-11-12T10:20:55.249Z,99.99
2016-11-12T10:21:55.321Z,99.99
2016-11-12T10:22:55.316Z,99.99
2016-11-12T10:23:55.277Z,99.99
2016-11-12T10:24:55.267Z,99.99
2016-11-12T10:25:55.257Z,99.99
2016-11-12T10:26:55.353Z,99.99
2016-11-12T10:27:55.264Z,99.99
2016-11-12T10:28:55.264Z,99.99
2016-11-12T10:29:55.338Z,99.99
2016-11-12T10:30:55.278Z,99.99
2016-11-12T10:31:55.277Z,99.99
2016-11-12T10:32:55.268Z,99.99
2016-11-12T10:33:55.378Z,99.99
2016-11-12T10:34:55.281Z,99.99
2016-11-12T10:35:55.368Z,99.99
2016-11-12T10:36:55.286Z,99.99
2016-11-12T10:37:55.354Z,99.99
2016-11-12T10:38:55.361Z,99.99
2016-11-12T10:39:55.343Z,99.99
2016-11-12T10:40:55.300Z,99.99
2016-11-12T10:41:55.375Z,99.99
2016-11-12T10:42:55.302Z,99.99
2016-11-12T10:43:55.309Z,99.99
2016-11-12T10:44:55.318Z,99.99
2016-11-12T10:45:55.309Z,99.99
2016-11-12T10:46:55.381Z,99.99
2016-11-12T10:47:55.396Z,99.99
2016-11-12T10:48:55.393Z,99.99
2016-11-12T10:49:55.398Z,99.99
2016-11-12T10:50:55.391Z,99.99
2016-11-12T10:51:55.399Z,99.99
2016-11-12T10:52:55.398Z,99.99
2016-11-12T10:53:55.422Z,99.99
2016-11-12T10:54:55.337Z,99.99
2016-11-12T10:55:55.375Z,99.99
2016-11-12T10:56:55.342Z,99.99
2016-11-12T10:57:55.415Z,99.99
2016-11-12T10:58:55.363Z,99.99
2016-11-12T10:59:55.364Z,99.99
2016-11-12T11:00:55.352Z,99.99
2016-11-12T11:01:55.436Z,99.99
2016-11-12T11:02:55.435Z,99.99
2016-11-12T11:03:55.438Z,99.99
2016-11-12T11:04:55.443Z,99.99
2016-11-12T11:05:55.370Z,99.99
2016-11-12T11:06:55.399Z,99.99
2016-11-12T11:07:55.453Z,99.99
2016-11-12T11:08:55.377Z,99.99
2016-11-12T11:09:55.449Z,99.99
2016-11-12T11:10:55.407Z,99.99
2016-11-12T11:11:55.402Z,99.99
2016-11-12T11:12:55.409Z,99.99
2016-11-12T11:13:55.385Z,99.99
2016-11-12T11:14:55.390Z,99.99
2016-11-12T11:15:55.395Z,99.99
2016-11-12T11:16:55.395Z,99.99
2016-11-12T11:17:55.474Z,99.99
2016-11-12T11:18:55.409Z,99.99
2016-11-12T11:19:55.404Z,99.99
2016-11-12T11:20:55.473Z,99.99
2016-11-12T11:21:55.419Z,99.99
2016-11-12T11:22:55.498Z,99.99
2016-11-12T11:23:55.417Z,99.99
2016-11-12T11:24:55.454Z,99.99
2016-11-12T11:25:55.420Z,99.99
2016-11-12T11:26:55.498Z,99.99
2016-11-12T11:27:55.514Z,99.99
2016-11-12T11:28:55.440Z,99.99
2016-11-12T11:29:55.511Z,99.99
2016-11-12T11:30:55.507Z,99.99
2016-11-12T11:31:55.441Z,99.99
2016-11-12T11:32:55.511Z,99.99
2016-11-12T11:33:55.523Z,99.99
2016-11-12T11:34:55.441Z,99.99
2016-11-12T11:35:55.451Z,99.99
2016-11-12T11:36:55.530Z,99.99
2016-11-12T11:37:55.523Z,99.99
2016-11-12T11:38:55.459Z,99.99
2016-11-12T11:39:55.463Z,99.99
2016-11-12T11:40:55.487Z,99.99
2016-11-12T11:41:55.475Z,99.99
2016-11-12T11:42:55.549Z,99.99
2016-11-12T11:43:55.517Z,99.99
2016-11-12T11:44:55.470Z,99.99
2016-11-12T11:45:55.540Z,99.99
2016-11-12T11:46:55.559Z,99.99
2016-11-12T11:47:55.482Z,99.99
2016-11-12T11:48:55.554Z,99.99
2016-11-12T11:49:55.590Z,99.99
2016-11-12T11:50:55.560Z,99.99
2016-11-12T11:51:55.500Z,99.99
2016-11-12T11:52:55.494Z,99.99
2016-11-12T11:53:55.500Z,99.99
2016-11-12T11:54:55.569Z,99.99
2016-11-12T11:55:55.574Z,99.99
2016-11-12T11:56:55.579Z,99.99
2016-11-12T11:57:55.515Z,99.99
2016-11-12T11:58:55.511Z,99.99
2016-11-12T11:59:55.598Z,99.99
2016-11-12T12:00:55.519Z,99.99
2016-11-12T12:01:55.541Z,99.99
2016-11-12T12:02:55.600Z,99.99
2016-11-12T12:03:55.604Z,99.99
2016-11-12T12:04:55.603Z,99.99
2016-11-12T12:05:55.528Z,99.99
2016-11-12T12:06:55.538Z,99.99
2016-11-12T12:07:55.534Z,99.99
2016-11-12T12:08:55.612Z,99.99
2016-11-12T12:09:55.610Z,99.99
2016-11-12T12:10:55.618Z,99.99
2016-11-12T12:11:55.545Z,99.99
2016-11-12T12:12:55.549Z,99.99
2016-11-12T12:13:55.557Z,99.99
2016-11-12T12:14:55.642Z,99.99
2016-11-12T12:15:55.656Z,99.99
2016-11-12T12:16:55.643Z,99.99
2016-11-12T12:17:55.654Z,99.99
2016-11-12T12:18:55.565Z,99.99
2016-11-12T12:19:55.665Z,99.99
2016-11-12T12:20:55.575Z,99.99
2016-11-12T12:21:55.659Z,99.99
2016-11-12T12:22:55.652Z,99.99
2016-11-12T12:23:55.661Z,99.99
2016-11-12T12:24:55.659Z,99.99
2016-11-12T12:25:55.654Z,99.99
2016-11-12T12:26:55.664Z,99.99
2016-11-12T12:27:55.669Z,99.99
2016-11-12T12:28:55.597Z,99.99
2016-11-12T12:29:55.681Z,99.99
2016-11-12T12:30:55.651Z,99.99
2016-11-12T12:31:55.697Z,99.99
2016-11-12T12:32:55.710Z,99.99
2016-11-12T12:33:55.606Z,99.99
2016-11-12T12:34:55.618Z,99.99
2016-11-12T12:35:55.611Z,99.99
2016-11-12T12:36:55.683Z,99.99
2016-11-12T12:37:55.693Z,99.99
2016-11-12T12:38:55.696Z,99.99
2016-11-12T12:39:55.709Z,99.99
2016-11-12T12:40:55.639Z,99.99
2016-11-12T12:41:55.714Z,99.99
2016-11-12T12:42:55.710Z,99.99
2016-11-12T12:43:55.640Z,99.99
2016-11-12T12:44:55.648Z,99.99
2016-11-12T12:45:55.647Z,99.99
2016-11-12T12:46:55.653Z,99.99
2016-11-12T12:47:55.745Z,99.99
2016-11-12T12:48:55.771Z,99.99
2016-11-12T12:49:55.728Z,99.99
2016-11-12T12:50:55.667Z,99.99
2016-11-12T12:51:55.737Z,99.99
2016-11-12T12:52:55.657Z,99.99
2016-11-12T12:53:55.742Z,99.99
2016-11-12T12:54:55.672Z,99.99